createdAt,value
2022-10-01T00:10:22.412Z,99.08
2022-10-01T00:25:25.747Z,99.14
2022-10-01T00:40:28.948Z,99.75
2022-10-01T00:55:36.475Z,99.94
2022-10-01T01:11:11.611Z,100.00
2022-10-01T01:26:24.812Z,100.00
2022-10-01T01:41:32.634Z,100.00
2022-10-01T01:56:35.981Z,100.00
2022-10-01T02:11:50.808Z,100.00
2022-10-01T02:26:57.074Z,100.00
2022-10-01T02:42:02.611Z,100.00
2022-10-01T02:57:24.217Z,100.00
2022-10-01T03:12:27.913Z,100.00
2022-10-01T03:27:31.153Z,100.00
2022-10-01T03:42:34.287Z,100.00
2022-10-01T03:57:37.237Z,100.00
2022-10-01T04:12:40.414Z,100.00
2022-10-01T04:28:04.267Z,100.00
2022-10-01T04:43:09.990Z,100.00
2022-10-01T04:58:13.204Z,100.00
2022-10-01T05:13:16.470Z,100.00
2022-10-01T05:28:22.433Z,100.00
2022-10-01T05:43:27.341Z,100.00
2022-10-01T05:58:31.234Z,100.00
2022-10-01T06:13:35.960Z,100.00
2022-10-01T06:28:38.891Z,100.00
2022-10-01T06:43:41.870Z,100.00
2022-10-01T06:58:45.030Z,100.00
2022-10-01T07:13:51.143Z,100.00
2022-10-01T07:28:57.550Z,100.00
2022-10-01T07:44:01.882Z,98.41
2022-10-01T07:59:05.602Z,94.43
2022-10-01T08:14:08.974Z,87.82
2022-10-01T08:29:16.862Z,83.48
2022-10-01T08:44:28.080Z,82.36
2022-10-01T09:00:02.580Z,78.52
2022-10-01T09:15:25.565Z,76.25
2022-10-01T09:30:30.264Z,73.68
2022-10-01T09:45:34.612Z,69.54
2022-10-01T10:00:40.437Z,66.00
2022-10-01T10:15:52.744Z,63.74
2022-10-01T10:40:44.060Z,60.23
2022-10-01T10:56:02.643Z,58.66
2022-10-01T11:11:16.286Z,58.99
2022-10-01T11:27:01.651Z,58.18
2022-10-01T11:42:14.388Z,59.67
2022-10-01T11:57:36.449Z,61.49
2022-10-01T12:12:48.572Z,63.90
2022-10-01T12:28:09.671Z,65.04
2022-10-01T12:43:14.655Z,65.87
2022-10-01T12:58:39.221Z,66.34
2022-10-01T13:13:43.517Z,67.54
2022-10-01T13:29:07.422Z,67.53
2022-10-01T13:44:12.123Z,59.79
2022-10-01T13:59:44.163Z,56.99
2022-10-01T14:15:14.587Z,59.79
2022-10-01T14:30:25.551Z,62.31
2022-10-01T14:45:30.607Z,66.52
2022-10-01T15:00:35.431Z,69.15
2022-10-01T15:15:42.213Z,71.86
2022-10-01T15:30:46.305Z,73.34
2022-10-01T15:46:20.968Z,75.30
2022-10-01T16:01:28.921Z,78.10
2022-10-01T16:16:33.203Z,80.00
2022-10-01T16:31:38.388Z,82.21
2022-10-01T16:46:42.697Z,82.92
2022-10-01T17:01:46.491Z,84.23
2022-10-01T17:16:51.270Z,85.26
2022-10-01T17:31:55.195Z,86.73
2022-10-01T17:46:59.102Z,88.99
2022-10-01T18:02:10.585Z,89.52
2022-10-01T18:17:27.030Z,91.21
2022-10-01T18:32:39.976Z,92.91
2022-10-01T18:48:19.525Z,94.06
2022-10-01T19:03:41.229Z,96.47
2022-10-01T19:19:03.542Z,98.87
2022-10-01T19:34:18.066Z,100.00
2022-10-01T19:49:28.432Z,100.00
2022-10-01T20:04:46.095Z,100.00
2022-10-01T20:19:58.870Z,100.00
2022-10-01T20:35:16.852Z,100.00
2022-10-01T20:50:26.847Z,100.00
2022-10-01T21:05:39.587Z,100.00
2022-10-01T21:21:06.493Z,100.00
2022-10-01T21:36:23.271Z,100.00
2022-10-01T21:51:45.769Z,100.00
2022-10-01T22:07:14.971Z,100.00
2022-10-01T22:22:39.082Z,100.00
2022-10-01T22:38:00.333Z,100.00
2022-10-01T22:53:18.944Z,100.00
2022-10-01T23:08:40.701Z,100.00
2022-10-01T23:23:55.746Z,100.00
2022-10-01T23:39:02.028Z,100.00
2022-10-01T23:54:11.728Z,100.00
